Time;durP1;ratioP1;P1;durP2;ratioP2;P2;SDS_P1;SDS_P2;PMS_P1;PMS_P2;Temp;Humidity;BMP_temperature;BMP_pressure;BME280_temperature;BME280_humidity;BME280_pressure;Samples;Min_cycle;Max_cycle;Signal;HPM_P1;HPM_P2
2021/05/06 00:33:50;;;;;;;4.97;2.70;;;;;;;2.63;84.89;98746.50;5015040;28;20384;-64
2021/05/06 00:36:16;;;;;;;4.88;2.90;;;;;;;2.55;84.98;98741.41;5014526;28;20045;-64
2021/05/06 00:38:54;;;;;;;4.30;2.70;;;;;;;2.51;85.17;98746.28;5013699;28;20473;-64
2021/05/06 00:54:42;;;;;;;3.05;2.28;;;;;;;2.51;84.79;98724.31;5013424;28;20025;-64
2021/05/06 01:05:30;;;;;;;5.13;2.90;;;;;;;2.45;85.74;98723.28;5014509;28;20092;-63
2021/05/06 01:07:58;;;;;;;4.50;2.85;;;;;;;2.40;85.96;98730.19;5009799;28;20054;-64
2021/05/06 01:10:41;;;;;;;4.68;2.95;;;;;;;2.48;86.27;98730.00;5012942;28;20393;-63
2021/05/06 01:13:07;;;;;;;5.57;2.95;;;;;;;2.40;86.43;98720.44;5014176;28;20053;-63
2021/05/06 01:15:32;;;;;;;4.78;2.90;;;;;;;2.40;86.63;98724.88;5013891;28;20076;-63
2021/05/06 01:17:58;;;;;;;5.18;2.80;;;;;;;2.41;86.39;98723.88;5014104;28;20060;-64
2021/05/06 01:20:23;;;;;;;4.78;2.80;;;;;;;2.31;86.84;98717.16;5013425;28;20038;-63
2021/05/06 01:22:49;;;;;;;4.50;2.67;;;;;;;2.38;86.75;98735.69;5013815;28;20065;-63
2021/05/06 01:25:15;;;;;;;3.08;2.45;;;;;;;2.39;87.28;98732.00;4995778;28;20038;-64
2021/05/06 01:30:27;;;;;;;7.20;2.53;;;;;;;2.46;87.21;98738.13;5012210;28;20045;-63
2021/05/06 01:32:58;;;;;;;3.95;2.65;;;;;;;2.41;87.39;98721.25;5013686;28;20030;-63
2021/05/06 01:35:36;;;;;;;;;;;;;;;2.40;87.44;98730.19;5013875;28;20382;-64
2021/05/06 01:59:43;;;;;;;3.10;2.53;;;;;;;2.69;85.97;98686.66;5013513;28;20028;-64
2021/05/06 02:02:09;;;;;;;4.30;2.63;;;;;;;2.81;85.11;98699.06;5012952;28;20429;-64
2021/05/06 02:04:34;;;;;;;3.83;2.40;;;;;;;2.83;85.55;98698.06;5013578;28;20029;-64
2021/05/06 02:07:00;;;;;;;3.20;2.28;;;;;;;2.70;85.56;98699.69;5012910;28;20030;-64
2021/05/06 02:09:25;;;;;;;3.83;2.28;;;;;;;2.65;85.65;98699.47;5013177;28;20053;-63
2021/05/06 02:11:51;;;;;;;3.65;2.30;;;;;;;2.56;86.01;98700.69;5012870;28;20499;-63
2021/05/06 02:14:16;;;;;;;2.95;2.25;;;;;;;2.42;86.03;98699.06;5013271;28;20029;-63
2021/05/06 02:16:41;;;;;;;2.72;2.28;;;;;;;2.40;85.63;98704.56;5012834;28;20049;-63
2021/05/06 02:19:07;;;;;;;3.10;2.30;;;;;;;2.34;85.37;98690.28;5013344;28;20034;-63
2021/05/06 02:21:33;;;;;;;3.30;2.08;;;;;;;2.31;85.66;98697.84;5012684;28;20049;-63
2021/05/06 02:23:58;;;;;;;3.55;1.98;;;;;;;2.22;85.84;98706.97;5013192;28;20053;-63
2021/05/06 02:26:24;;;;;;;4.22;2.38;;;;;;;2.12;85.79;98707.34;5012511;28;20034;-63
2021/05/06 02:28:49;;;;;;;4.38;2.20;;;;;;;2.25;85.02;98723.25;5011834;28;20029;-63
2021/05/06 02:31:15;;;;;;;2.60;2.15;;;;;;;2.14;85.09;98713.25;5012488;28;20124;-63
2021/05/06 02:33:41;;;;;;;3.50;2.38;;;;;;;2.06;85.53;98716.91;5013154;28;20033;-63
2021/05/06 02:36:07;;;;;;;4.03;2.53;;;;;;;1.85;86.08;98709.94;5011216;28;20196;-64
2021/05/06 02:38:33;;;;;;;3.97;2.40;;;;;;;1.72;86.31;98704.59;5012967;28;20469;-63
2021/05/06 02:40:58;;;;;;;3.28;2.15;;;;;;;1.72;86.76;98694.88;4994916;28;20045;-63
2021/05/06 02:43:23;;;;;;;4.97;2.40;;;;;;;1.78;86.66;98703.81;5012994;28;20351;-64
2021/05/06 02:45:49;;;;;;;3.15;2.22;;;;;;;1.88;86.63;98701.63;5012508;28;20457;-63
2021/05/06 02:48:14;;;;;;;5.55;2.30;;;;;;;1.98;86.76;98701.25;5013109;28;20026;-63
2021/05/06 02:50:45;;;;;;;3.30;2.22;;;;;;;1.98;87.13;98692.50;5014834;28;20088;-63
2021/05/06 02:53:14;;;;;;;4.40;2.50;;;;;;;2.00;87.55;98687.81;5016687;28;20028;-63
2021/05/06 02:55:50;;;;;;;4.68;2.83;;;;;;;1.97;87.77;98682.94;5016277;28;20045;-63
2021/05/06 02:58:35;;;;;;;4.95;2.65;;;;;;;1.94;88.16;98671.72;5016582;28;20388;-63
2021/05/06 03:03:47;;;;;;;4.75;2.70;;;;;;;1.93;88.51;98667.47;5016522;28;20103;-63
2021/05/06 03:06:17;;;;;;;4.38;2.58;;;;;;;1.93;88.74;98662.19;5016061;28;20042;-63
2021/05/06 03:08:45;;;;;;;5.70;2.53;;;;;;;1.88;88.63;98659.34;5016319;28;20041;-63
2021/05/06 03:24:27;;;;;;;4.80;3.00;;;;;;;2.07;88.70;98638.41;5016321;28;20085;-63
2021/05/06 03:26:52;;;;;;;4.30;3.10;;;;;;;2.05;88.60;98643.09;4982634;28;20467;-63
2021/05/06 03:29:23;;;;;;;4.35;3.08;;;;;;;2.00;88.70;98638.41;5016127;28;20064;-63
2021/05/06 03:32:00;;;;;;;6.72;3.50;;;;;;;2.03;89.22;98639.84;5015671;28;20136;-63
2021/05/06 03:34:47;;;;;;;5.97;3.83;;;;;;;1.99;88.86;98633.31;5000154;28;20026;-63
2021/05/06 03:42:46;;;;;;;4.93;3.60;;;;;;;2.01;89.33;98641.88;5000639;28;20041;-63
2021/05/06 03:48:55;;;;;;;6.45;3.95;;;;;;;2.03;89.25;98642.50;4974594;28;20424;-63
2021/05/06 04:18:35;;;;;;;6.10;4.47;;;;;;;2.40;87.45;98624.38;5015219;28;20065;-64
2021/05/06 04:26:53;;;;;;;5.60;4.57;;;;;;;2.48;86.93;98627.66;5014607;28;20052;-64
2021/05/06 04:37:14;;;;;;;5.82;4.47;;;;;;;2.58;85.65;98627.22;5013416;28;20096;-63
2021/05/06 04:39:48;;;;;;;6.70;4.68;;;;;;;2.59;85.87;98623.56;5014863;28;20468;-63
2021/05/06 04:45:20;;;;;;;8.50;4.22;;;;;;;2.67;85.36;98626.00;4997149;28;20350;-63
2021/05/06 04:55:54;;;;;;;5.72;4.00;;;;;;;3.02;83.28;98628.34;5014166;28;20042;-63
2021/05/06 04:58:59;;;;;;;9.10;4.20;;;;;;;3.39;81.75;98633.94;5013202;28;20034;-63
2021/05/06 05:04:19;;;;;;;5.47;3.80;;;;;;;3.77;80.14;98630.47;5014412;28;20028;-63
2021/05/06 05:25:07;;;;;;;5.90;3.95;;;;;;;3.95;79.92;98635.88;4994542;28;20053;-63
2021/05/06 05:27:33;;;;;;;6.18;3.53;;;;;;;4.10;79.48;98636.38;4994023;28;20085;-63
2021/05/06 05:29:58;;;;;;;6.63;3.60;;;;;;;4.23;78.67;98637.31;4994275;28;20038;-63
2021/05/06 05:32:24;;;;;;;6.18;3.70;;;;;;;4.32;77.88;98633.38;4993710;28;20053;-63
2021/05/06 05:37:20;;;;;;;6.72;3.47;;;;;;;4.81;76.03;98636.22;4993868;28;20041;-63
2021/05/06 05:55:47;;;;;;;4.10;2.90;;;;;;;6.71;68.85;98656.19;4993418;28;20401;-63
2021/05/06 05:58:12;;;;;;;8.20;3.28;;;;;;;6.58;69.38;98654.56;5008770;28;20033;-63
2021/05/06 06:00:38;;;;;;;5.63;3.20;;;;;;;6.35;70.82;98643.91;5008461;28;20039;-63
2021/05/06 06:03:03;;;;;;;4.93;3.50;;;;;;;6.31;70.88;98646.19;4993626;28;20093;-63
2021/05/06 06:05:28;;;;;;;7.18;3.67;;;;;;;6.54;69.74;98647.25;4993408;28;20120;-63
2021/05/06 06:07:54;;;;;;;6.00;3.20;;;;;;;8.37;62.66;98652.00;5000005;28;20064;-63
2021/05/06 06:10:19;;;;;;;4.95;2.90;;;;;;;8.48;61.88;98648.47;5013131;28;20567;-63
2021/05/06 06:12:45;;;;;;;5.10;2.70;;;;;;;9.91;57.02;98658.41;5013446;28;20387;-64
2021/05/06 06:15:23;;;;;;;5.43;2.80;;;;;;;9.12;60.58;98660.66;5012896;28;20045;-63
2021/05/06 06:17:50;;;;;;;5.38;3.13;;;;;;;10.06;57.85;98652.38;5013264;28;20457;-63
2021/05/06 06:20:15;;;;;;;5.90;2.70;;;;;;;9.93;57.14;98650.09;5012840;28;20058;-64
2021/05/06 06:22:42;;;;;;;5.47;2.88;;;;;;;9.34;59.65;98652.66;5013225;28;20456;-64
2021/05/06 06:25:08;;;;;;;4.05;2.63;;;;;;;10.36;56.77;98651.09;5011717;28;20029;-63
2021/05/06 06:27:34;;;;;;;4.75;2.70;;;;;;;12.28;50.87;98650.66;5013292;28;20034;-64
2021/05/06 06:30:00;;;;;;;4.57;2.35;;;;;;;9.76;56.52;98646.69;5013081;28;20519;-64
2021/05/06 06:32:26;;;;;;;4.00;2.50;;;;;;;10.24;56.70;98653.09;5012796;28;20078;-64
2021/05/06 06:34:51;;;;;;;3.90;2.55;;;;;;;12.42;49.80;98637.50;5013044;28;20049;-64
2021/05/06 06:37:17;;;;;;;5.18;2.58;;;;;;;13.26;46.97;98646.00;5012532;28;20361;-62
2021/05/06 06:39:43;;;;;;;5.13;2.25;;;;;;;12.03;49.77;98646.06;5013139;28;20026;-64
2021/05/06 06:42:09;;;;;;;5.13;2.67;;;;;;;10.37;54.85;98647.34;5012559;28;20407;-64
2021/05/06 06:44:36;;;;;;;5.43;2.45;;;;;;;12.63;49.21;98638.28;5013016;28;20384;-64
2021/05/06 06:47:02;;;;;;;4.95;2.50;;;;;;;11.49;51.53;98643.75;4995023;28;20153;-62
2021/05/06 06:49:29;;;;;;;4.70;2.38;;;;;;;9.65;56.79;98635.88;5012891;28;20022;-64
2021/05/06 06:51:55;;;;;;;4.90;2.60;;;;;;;11.70;51.17;98634.69;5012440;28;20113;-64
2021/05/06 06:54:20;;;;;;;4.45;2.40;;;;;;;10.73;55.09;98634.19;5012974;28;20052;-62
2021/05/06 06:56:45;;;;;;;5.93;2.60;;;;;;;10.18;56.71;98633.47;4994922;28;20038;-64
2021/05/06 06:59:11;;;;;;;5.07;2.58;;;;;;;8.99;57.31;98624.38;5012876;28;20034;-62
2021/05/06 07:01:38;;;;;;;3.85;2.47;;;;;;;10.70;55.58;98626.69;4994795;28;20041;-64
2021/05/06 07:04:04;;;;;;;5.03;2.42;;;;;;;9.30;57.78;98622.91;5012788;28;20030;-64
2021/05/06 07:06:29;;;;;;;5.15;2.47;;;;;;;9.14;58.76;98621.13;5012371;28;20056;-63
2021/05/06 07:08:54;;;;;;;4.68;2.40;;;;;;;9.20;58.92;98628.13;5012645;28;20527;-62
2021/05/06 07:11:20;;;;;;;3.42;2.08;;;;;;;8.20;61.50;98620.75;5012359;28;20041;-62
2021/05/06 07:13:45;;;;;;;6.05;2.60;;;;;;;8.10;62.95;98619.78;5012819;28;20041;-63
2021/05/06 07:16:13;;;;;;;3.70;2.13;;;;;;;6.86;65.00;98615.78;5012212;28;20484;-64
2021/05/06 07:18:38;;;;;;;4.35;2.28;;;;;;;7.88;61.50;98614.31;5012605;28;20500;-63
2021/05/06 07:21:04;;;;;;;4.75;2.47;;;;;;;8.40;61.02;98608.81;5012173;28;20050;-62
2021/05/06 07:23:31;;;;;;;5.72;2.50;;;;;;;8.03;62.18;98609.25;5012431;28;20065;-64
2021/05/06 07:25:57;;;;;;;7.60;2.50;;;;;;;8.58;60.61;98605.88;5011986;28;20065;-63
2021/05/06 07:28:32;;;;;;;7.10;2.45;;;;;;;8.14;61.87;98610.25;5012580;28;20041;-63
2021/05/06 07:31:00;;;;;;;9.13;2.55;;;;;;;9.37;58.05;98617.38;5012055;28;20061;-63
2021/05/06 07:33:26;;;;;;;5.22;2.30;;;;;;;9.11;57.16;98608.22;5012503;28;20134;-63
2021/05/06 07:35:51;;;;;;;5.63;2.42;;;;;;;8.89;59.12;98605.53;5012105;28;20424;-63
2021/05/06 07:38:18;;;;;;;4.20;2.40;;;;;;;9.09;57.32;98611.16;5015637;28;20077;-63
2021/05/06 07:40:43;;;;;;;5.75;2.50;;;;;;;10.07;53.46;98611.16;5015725;28;20068;-63
2021/05/06 07:43:10;;;;;;;3.90;2.00;;;;;;;11.53;50.09;98604.56;5015784;28;20108;-64
2021/05/06 07:45:35;;;;;;;5.78;2.28;;;;;;;10.32;51.82;98607.13;5015448;28;20045;-64
2021/05/06 07:48:01;;;;;;;4.90;1.90;;;;;;;10.74;50.59;98598.31;5015851;28;20388;-63
2021/05/06 07:50:27;;;;;;;3.33;1.75;;;;;;;10.86;49.71;98601.59;4997809;28;20472;-63
2021/05/06 07:52:54;;;;;;;4.70;2.00;;;;;;;11.98;47.78;98606.59;4998265;28;20400;-63
2021/05/06 07:55:20;;;;;;;5.10;2.20;;;;;;;11.30;48.65;98595.91;5015163;28;20033;-63
2021/05/06 07:57:45;;;;;;;5.18;2.00;;;;;;;10.38;49.32;98589.19;5015771;28;20026;-63
2021/05/06 08:00:13;;;;;;;4.32;1.90;;;;;;;12.38;45.74;98590.75;5015106;28;20029;-63
2021/05/06 08:02:41;;;;;;;5.68;1.90;;;;;;;11.07;50.21;98599.03;4997901;28;20393;-63
2021/05/06 08:05:07;;;;;;;4.60;2.10;;;;;;;10.31;50.25;98586.75;5015333;28;20030;-64
2021/05/06 08:07:32;;;;;;;3.83;1.88;;;;;;;9.42;53.36;98588.00;4994809;28;20039;-63
2021/05/06 08:09:58;;;;;;;3.40;1.70;;;;;;;8.69;55.46;98585.50;4995988;28;20377;-64
2021/05/06 08:12:24;;;;;;;5.57;2.25;;;;;;;9.36;53.62;98583.66;5010619;28;20082;-64
2021/05/06 08:14:52;;;;;;;4.03;2.08;;;;;;;9.63;52.08;98584.47;4995739;28;20053;-64
2021/05/06 08:17:17;;;;;;;6.47;2.00;;;;;;;10.25;51.36;98590.41;4994059;28;20473;-64
2021/05/06 08:19:42;;;;;;;3.38;1.77;;;;;;;10.86;48.26;98590.03;4994592;28;20034;-64
2021/05/06 08:22:08;;;;;;;4.05;1.83;;;;;;;10.22;48.99;98590.94;4995210;28;20043;-64
2021/05/06 08:24:34;;;;;;;6.20;1.98;;;;;;;10.32;48.62;98583.81;4995716;28;20034;-64
2021/05/06 08:26:59;;;;;;;5.45;2.08;;;;;;;10.19;48.08;98586.09;4995180;28;20137;-63
2021/05/06 08:29:25;;;;;;;5.65;1.90;;;;;;;9.70;47.96;98578.94;4995614;28;20022;-64
2021/05/06 08:31:50;;;;;;;3.70;1.67;;;;;;;9.65;48.94;98574.34;4995456;28;20516;-64
2021/05/06 08:34:16;;;;;;;3.28;1.88;;;;;;;9.51;49.15;98581.16;4995198;28;20023;-63
2021/05/06 08:36:41;;;;;;;5.50;2.08;;;;;;;10.12;46.92;98571.03;4995123;28;20035;-64
2021/05/06 08:39:06;;;;;;;2.70;1.65;;;;;;;12.06;43.67;98571.13;4995417;28;20033;-64
2021/05/06 08:41:33;;;;;;;4.93;1.90;;;;;;;12.36;42.67;98566.03;4993748;28;20045;-64
2021/05/06 08:44:01;;;;;;;5.93;2.08;;;;;;;12.15;42.70;98573.28;4995358;28;20405;-64
2021/05/06 08:46:50;;;;;;;5.65;2.00;;;;;;;11.83;44.41;98569.75;4993710;28;20077;-64
2021/05/06 08:49:16;;;;;;;4.80;2.10;;;;;;;11.15;45.07;98560.97;5006970;28;20023;-64
2021/05/06 08:51:41;;;;;;;4.78;2.15;;;;;;;11.38;44.51;98563.22;4993685;28;20045;-64
2021/05/06 08:54:07;;;;;;;4.57;2.00;;;;;;;11.23;44.96;98566.66;4993974;28;20023;-64
2021/05/06 08:56:33;;;;;;;4.07;1.63;;;;;;;12.11;42.16;98567.66;4994596;28;20026;-64
2021/05/06 08:58:58;;;;;;;4.25;1.80;;;;;;;11.65;43.72;98567.56;4994871;28;20026;-64
2021/05/06 09:01:23;;;;;;;3.25;1.75;;;;;;;11.54;43.30;98568.63;4994456;28;20039;-64
2021/05/06 09:03:49;;;;;;;6.53;2.15;;;;;;;14.02;38.12;98575.59;4994887;28;20030;-64
2021/05/06 09:06:16;;;;;;;3.22;1.92;;;;;;;14.19;37.43;98567.13;4994420;28;20034;-64
2021/05/06 09:08:56;;;;;;;4.25;1.80;;;;;;;14.57;36.63;98561.16;5007473;28;20095;-64
2021/05/06 09:11:35;;;;;;;3.33;2.07;;;;;;;14.98;35.74;98556.16;5014031;28;20065;-64
2021/05/06 09:14:05;;;;;;;4.28;2.20;;;;;;;15.61;35.09;98544.28;4997072;28;20088;-64
2021/05/06 09:16:37;;;;;;;3.03;1.60;;;;;;;14.24;35.79;98547.41;5013874;28;20069;-64
2021/05/06 09:19:09;;;;;;;3.53;1.73;;;;;;;14.05;35.78;98559.97;5014161;28;20354;-64
2021/05/06 09:21:37;;;;;;;3.10;1.48;;;;;;;13.45;36.85;98550.13;4996031;28;20038;-64
2021/05/06 09:24:35;;;;;;;2.70;1.60;;;;;;;14.24;35.93;98556.31;5014305;28;20036;-64
2021/05/06 09:27:01;;;;;;;4.85;1.55;;;;;;;13.18;38.13;98547.81;5013587;28;20120;-64
2021/05/06 09:29:33;;;;;;;4.10;1.80;;;;;;;12.90;38.74;98546.56;5014079;28;20469;-64
2021/05/06 09:32:11;;;;;;;2.05;1.30;;;;;;;11.35;39.88;98547.63;5013401;28;20053;-64
2021/05/06 09:34:37;;;;;;;3.58;1.60;;;;;;;12.14;40.04;98552.88;4996269;28;20415;-64
2021/05/06 09:37:03;;;;;;;5.40;2.10;;;;;;;11.88;40.67;98558.22;5013618;28;20045;-64
2021/05/06 09:39:28;;;;;;;3.45;1.80;;;;;;;11.81;39.90;98557.66;5013878;28;20022;-64
2021/05/06 09:42:07;;;;;;;4.00;1.90;;;;;;;12.28;38.86;98552.06;4995910;28;20049;-64
2021/05/06 09:44:49;;;;;;;4.03;1.42;;;;;;;12.01;38.63;98551.53;5012505;28;20476;-65
2021/05/06 09:47:15;;;;;;;3.40;1.83;;;;;;;11.94;39.45;98546.41;5013294;28;20489;-64
2021/05/06 09:49:41;;;;;;;3.33;1.55;;;;;;;11.94;39.70;98551.78;5013902;28;20029;-64
2021/05/06 09:52:06;;;;;;;2.95;1.77;;;;;;;11.48;40.64;98542.81;5013349;28;20038;-64
2021/05/06 09:54:31;;;;;;;5.70;2.00;;;;;;;12.94;37.61;98539.56;5012557;28;20030;-64
2021/05/06 09:57:01;;;;;;;3.05;1.65;;;;;;;12.17;38.49;98528.16;5013206;28;20038;-64
2021/05/06 09:59:31;;;;;;;3.40;1.90;;;;;;;14.19;38.45;98531.28;5012785;28;20022;-64
2021/05/06 10:02:09;;;;;;;4.70;1.98;;;;;;;14.84;34.52;98518.25;5012961;28;20037;-64
2021/05/06 10:04:35;;;;;;;5.47;1.92;;;;;;;16.01;32.60;98531.28;5013496;28;20383;-64
2021/05/06 10:07:13;;;;;;;3.78;1.70;;;;;;;16.64;30.50;98513.69;5012913;28;20041;-64
2021/05/06 10:09:51;;;;;;;4.15;1.73;;;;;;;16.05;31.56;98507.97;5013530;28;20404;-65
2021/05/06 10:12:17;;;;;;;3.70;1.80;;;;;;;16.47;30.99;98500.72;5012178;28;20030;-65
2021/05/06 10:14:43;;;;;;;3.05;1.70;;;;;;;17.36;29.49;98496.00;4995846;28;20148;-65
2021/05/06 10:17:08;;;;;;;3.92;1.58;;;;;;;17.30;28.32;98492.63;4995460;28;20034;-64
2021/05/06 10:19:34;;;;;;;3.00;1.58;;;;;;;15.65;29.86;98496.69;5013374;28;20512;-64
2021/05/06 10:22:00;;;;;;;2.05;1.33;;;;;;;16.54;28.82;98493.03;5012783;28;20034;-65
2021/05/06 10:24:26;;;;;;;3.75;1.77;;;;;;;17.61;28.54;98486.50;5013259;28;20080;-65
2021/05/06 10:26:52;;;;;;;2.80;1.45;;;;;;;14.07;32.57;98493.94;4979448;28;20385;-65
2021/05/06 10:29:17;;;;;;;6.05;2.20;;;;;;;13.67;38.03;98481.59;4995885;28;20028;-65
2021/05/06 10:31:44;;;;;;;5.10;2.00;;;;;;;12.93;41.22;98478.78;4979050;28;20543;-65
2021/05/06 10:34:09;;;;;;;9.25;2.25;;;;;;;11.66;41.82;98477.91;4995813;28;20058;-65
2021/05/06 10:36:35;;;;;;;3.42;2.13;;;;;;;12.38;40.75;98469.81;5012653;28;20045;-65
2021/05/06 10:39:01;;;;;;;5.70;2.08;;;;;;;12.44;40.41;98480.28;5013397;28;20077;-64
2021/05/06 10:41:29;;;;;;;4.72;2.20;;;;;;;12.77;40.69;98485.31;5011771;28;20049;-65
2021/05/06 10:43:56;;;;;;;4.78;2.30;;;;;;;12.19;42.26;98472.28;5013130;28;20030;-64
2021/05/06 10:46:22;;;;;;;3.85;2.40;;;;;;;12.53;43.29;98461.72;4994708;28;20145;-64
2021/05/06 10:48:53;;;;;;;5.63;2.42;;;;;;;11.72;44.13;98466.09;5013196;28;20098;-64
2021/05/06 10:51:40;;;;;;;4.57;2.33;;;;;;;11.00;46.91;98467.84;5012648;28;20065;-64
2021/05/06 10:54:26;;;;;;;3.25;1.90;;;;;;;10.24;48.29;98466.41;5013193;28;20077;-64
2021/05/06 10:56:52;;;;;;;5.15;2.08;;;;;;;10.82;46.49;98466.47;5012541;28;20038;-64
2021/05/06 10:59:28;;;;;;;4.00;2.08;;;;;;;10.33;47.51;98477.47;5011722;28;20080;-64
2021/05/06 11:01:54;;;;;;;5.45;2.42;;;;;;;10.80;45.31;98463.22;5012450;28;20042;-64
2021/05/06 11:04:38;;;;;;;4.50;2.35;;;;;;;11.25;46.07;98463.63;5012850;28;20416;-64
2021/05/06 11:07:13;;;;;;;6.63;2.20;;;;;;;11.50;44.46;98462.88;5012402;28;20049;-64
2021/05/06 11:09:42;;;;;;;6.10;2.60;;;;;;;11.54;43.59;98451.34;5011766;28;20117;-64
2021/05/06 11:12:17;;;;;;;5.00;2.25;;;;;;;12.19;43.88;98451.59;5015344;28;20048;-64
2021/05/06 11:15:00;;;;;;;6.03;2.42;;;;;;;12.12;45.47;98443.00;5016686;28;20022;-64
2021/05/06 11:17:26;;;;;;;4.70;2.40;;;;;;;11.74;45.87;98439.81;5016111;28;20164;-64
2021/05/06 11:19:52;;;;;;;3.85;2.10;;;;;;;11.65;46.94;98436.84;5016457;28;20109;-64
2021/05/06 11:22:43;;;;;;;4.60;2.13;;;;;;;12.29;44.75;98424.69;4998284;28;20041;-64
2021/05/06 11:25:38;;;;;;;;;;;;;;;12.01;44.05;98428.81;5016562;28;20108;-64
2021/05/06 11:28:04;;;;;;;3.05;2.33;;;;;;;12.38;42.63;98408.00;5008396;28;19917;-64
2021/05/06 11:30:30;;;;;;;5.97;2.67;;;;;;;12.66;40.91;98404.69;5015788;28;20096;-64
2021/05/06 11:32:56;;;;;;;4.68;2.45;;;;;;;13.24;41.34;98411.34;5016189;28;20353;-64
2021/05/06 11:35:21;;;;;;;4.93;2.30;;;;;;;13.74;40.78;98420.16;5014671;28;20041;-64
2021/05/06 11:37:53;;;;;;;4.60;2.38;;;;;;;12.11;42.46;98408.38;4998716;28;20029;-64
2021/05/06 11:40:26;;;;;;;5.20;2.50;;;;;;;13.10;41.39;98408.47;4998077;28;20022;-64
2021/05/06 11:42:53;;;;;;;4.07;2.20;;;;;;;13.42;40.78;98413.41;5015870;28;20485;-64
2021/05/06 11:45:27;;;;;;;5.57;2.60;;;;;;;13.46;40.62;98409.06;5015372;28;20026;-65
2021/05/06 11:47:53;;;;;;;3.88;2.00;;;;;;;12.70;40.96;98407.63;5015964;28;20022;-64
2021/05/06 11:50:29;;;;;;;4.57;2.10;;;;;;;12.58;42.04;98407.13;5015488;28;20033;-64
2021/05/06 11:52:55;;;;;;;4.07;2.13;;;;;;;12.71;41.93;98401.97;5015904;28;20041;-64
2021/05/06 11:55:26;;;;;;;4.32;2.10;;;;;;;13.05;41.96;98401.22;5015418;28;20045;-64
2021/05/06 11:57:52;;;;;;;4.72;2.30;;;;;;;13.85;39.27;98378.56;5015614;28;20030;-64
2021/05/06 12:00:18;;;;;;;3.67;2.20;;;;;;;13.38;39.60;98374.69;5015273;28;20076;-64
2021/05/06 12:02:43;;;;;;;3.53;2.13;;;;;;;13.33;39.42;98372.03;5015663;28;20033;-64
2021/05/06 12:05:10;;;;;;;5.05;2.15;;;;;;;12.04;41.81;98368.38;4997563;28;20472;-64
2021/05/06 12:07:37;;;;;;;5.40;2.30;;;;;;;11.52;43.95;98356.88;5015438;28;20041;-64
2021/05/06 12:10:09;;;;;;;5.45;2.22;;;;;;;12.46;42.91;98359.88;5013902;28;20022;-65
2021/05/06 12:12:34;;;;;;;5.05;2.33;;;;;;;11.99;43.41;98357.63;5015262;28;20063;-64
2021/05/06 12:15:01;;;;;;;6.25;2.38;;;;;;;12.04;44.07;98349.56;5015458;28;20021;-65
2021/05/06 12:17:26;;;;;;;6.75;2.20;;;;;;;11.78;45.04;98344.22;5015149;28;20420;-64
2021/05/06 12:19:51;;;;;;;5.07;2.30;;;;;;;11.19;45.78;98347.50;4997804;28;20044;-64
2021/05/06 12:22:17;;;;;;;5.35;2.50;;;;;;;11.15;46.12;98335.69;5013823;28;20064;-65
2021/05/06 12:24:48;;;;;;;5.68;2.40;;;;;;;10.97;46.29;98332.44;5015173;28;20025;-64
2021/05/06 12:27:21;;;;;;;3.70;2.20;;;;;;;10.96;47.12;98338.91;5013469;28;20058;-64
2021/05/06 12:29:49;;;;;;;4.97;2.42;;;;;;;10.61;48.14;98333.44;5015047;28;20026;-64
2021/05/06 12:32:21;;;;;;;4.32;2.03;;;;;;;10.80;47.45;98323.84;5014517;28;20042;-65
2021/05/06 12:34:47;;;;;;;5.32;2.70;;;;;;;10.89;46.47;98322.25;5013289;28;20524;-64
2021/05/06 12:37:12;;;;;;;4.90;2.30;;;;;;;11.40;45.12;98333.00;5014536;28;20041;-64
2021/05/06 12:39:41;;;;;;;4.95;2.33;;;;;;;11.70;45.78;98325.97;4997443;28;20036;-64
2021/05/06 12:42:06;;;;;;;4.68;1.90;;;;;;;11.58;45.67;98312.88;4996824;28;20477;-65
2021/05/06 12:44:43;;;;;;;4.60;1.95;;;;;;;11.21;44.91;98302.44;5015014;28;20029;-64
2021/05/06 12:47:28;;;;;;;5.15;2.38;;;;;;;11.05;46.59;98311.53;5014337;28;20489;-65
2021/05/06 12:50:18;;;;;;;4.38;2.15;;;;;;;10.71;48.04;98317.41;5014627;28;20021;-65
2021/05/06 12:52:54;;;;;;;3.67;1.98;;;;;;;11.04;47.65;98326.03;5013255;28;20042;-65
2021/05/06 12:55:22;;;;;;;4.63;2.17;;;;;;;10.52;48.81;98323.25;5014475;28;20033;-64
2021/05/06 12:58:17;;;;;;;6.75;2.22;;;;;;;11.01;47.55;98319.34;4997079;28;20029;-64
2021/05/06 13:00:43;;;;;;;6.15;2.40;;;;;;;10.97;48.05;98313.69;5014356;28;20434;-64
2021/05/06 13:03:13;;;;;;;3.65;2.03;;;;;;;10.46;49.21;98302.91;5014535;28;20072;-64
2021/05/06 13:05:41;;;;;;;8.52;1.83;;;;;;;10.14;48.96;98305.69;4996526;28;20041;-64
2021/05/06 13:08:07;;;;;;;4.15;2.20;;;;;;;10.63;51.77;98288.44;4996451;28;20607;-65
2021/05/06 13:10:39;;;;;;;3.50;2.08;;;;;;;10.21;49.65;98289.38;5013840;28;20042;-65
2021/05/06 13:13:06;;;;;;;4.28;2.20;;;;;;;9.77;50.05;98300.44;5014258;28;20026;-65
2021/05/06 13:15:50;;;;;;;4.15;2.13;;;;;;;10.12;49.42;98281.06;5013985;28;20045;-65
2021/05/06 13:18:16;;;;;;;3.78;2.30;;;;;;;10.54;48.37;98291.66;5014320;28;20376;-64
2021/05/06 13:20:42;;;;;;;5.35;2.20;;;;;;;10.31;49.89;98286.78;5013693;28;20071;-64
2021/05/06 13:23:15;;;;;;;6.55;2.35;;;;;;;10.81;50.55;98293.31;5014021;28;20368;-64
2021/05/06 13:25:45;;;;;;;4.88;2.40;;;;;;;10.10;49.93;98300.03;5013776;28;20568;-64
2021/05/06 13:28:12;;;;;;;4.47;2.33;;;;;;;10.34;50.97;98288.94;5014242;28;20021;-63
2021/05/06 13:30:38;;;;;;;3.95;2.00;;;;;;;9.97;49.60;98287.16;5013726;28;20136;-64
2021/05/06 13:33:10;;;;;;;7.43;2.22;;;;;;;9.90;53.64;98283.91;5014013;28;20032;-63
2021/05/06 13:35:35;;;;;;;5.47;2.10;;;;;;;9.86;54.38;98277.44;5013150;28;20046;-63
2021/05/06 13:38:04;;;;;;;4.82;2.35;;;;;;;9.78;56.68;98285.97;5014209;28;20368;-66
2021/05/06 13:40:29;;;;;;;5.85;2.50;;;;;;;10.03;58.03;98277.25;5013405;28;20046;-64
2021/05/06 13:42:54;;;;;;;4.43;2.20;;;;;;;10.27;57.04;98267.72;5013870;28;20037;-64
2021/05/06 13:45:20;;;;;;;5.43;2.90;;;;;;;10.04;57.57;98263.63;5013165;28;20092;-64
2021/05/06 13:47:48;;;;;;;3.58;2.08;;;;;;;10.13;59.11;98264.75;5013711;28;20010;-64
2021/05/06 13:50:15;;;;;;;4.55;1.98;;;;;;;10.12;58.44;98255.06;4995741;28;20026;-65
2021/05/06 13:52:41;;;;;;;3.83;2.28;;;;;;;10.44;57.81;98256.81;5013720;28;20028;-65
2021/05/06 13:55:08;;;;;;;5.10;2.33;;;;;;;10.29;59.11;98248.75;5004007;28;20104;-65
2021/05/06 13:57:33;;;;;;;3.75;2.10;;;;;;;10.30;57.73;98250.34;5011054;28;20022;-65
2021/05/06 13:59:59;;;;;;;4.85;2.35;;;;;;;10.28;55.98;98241.75;5013645;28;20033;-65
2021/05/06 14:02:26;;;;;;;4.15;2.33;;;;;;;10.48;59.30;98241.81;5013011;28;20468;-65
2021/05/06 14:04:52;;;;;;;3.80;2.00;;;;;;;10.50;56.90;98234.31;5012265;28;20424;-65
2021/05/06 14:07:17;;;;;;;3.97;2.22;;;;;;;10.11;59.14;98234.75;4995039;28;20070;-65
2021/05/06 14:09:43;;;;;;;4.00;2.10;;;;;;;9.58;56.51;98228.63;5013187;28;20362;-65
2021/05/06 14:12:09;;;;;;;5.05;2.70;;;;;;;9.92;58.87;98222.88;5012830;28;20069;-65
2021/05/06 14:14:34;;;;;;;4.38;2.08;;;;;;;9.84;60.33;98215.38;5013351;28;20030;-65
2021/05/06 14:17:00;;;;;;;6.15;2.20;;;;;;;9.65;60.82;98217.69;4995492;28;20496;-65
2021/05/06 14:19:29;;;;;;;3.50;1.90;;;;;;;9.81;56.10;98215.88;5013178;28;20432;-65
2021/05/06 14:21:55;;;;;;;3.45;2.17;;;;;;;10.38;58.32;98212.31;5012750;28;20494;-65
2021/05/06 14:24:21;;;;;;;5.32;2.42;;;;;;;9.85;58.90;98217.78;5013125;28;20022;-65
2021/05/06 14:26:48;;;;;;;3.05;1.70;;;;;;;8.74;59.40;98211.53;5012604;28;20045;-65
2021/05/06 14:29:15;;;;;;;5.60;2.20;;;;;;;8.65;60.72;98210.38;4995506;28;20032;-66
2021/05/06 14:31:41;;;;;;;5.43;2.33;;;;;;;8.35;62.90;98201.00;5012255;28;20064;-65
2021/05/06 14:34:06;;;;;;;3.33;2.00;;;;;;;8.32;64.05;98201.50;5013042;28;20034;-66
2021/05/06 14:36:31;;;;;;;4.45;2.28;;;;;;;8.11;63.69;98189.84;5012610;28;20037;-64
2021/05/06 14:39:00;;;;;;;4.95;2.47;;;;;;;8.12;63.95;98190.63;5012670;28;20018;-66
2021/05/06 14:41:26;;;;;;;3.83;2.30;;;;;;;7.89;65.23;98187.19;5011563;28;20038;-66
2021/05/06 14:43:51;;;;;;;3.42;2.40;;;;;;;8.11;66.51;98181.00;5012968;28;20036;-64
2021/05/06 14:46:17;;;;;;;3.78;2.10;;;;;;;8.20;63.08;98171.50;5014281;28;20056;-64
2021/05/06 14:48:42;;;;;;;4.72;2.30;;;;;;;7.98;63.99;98177.69;5017169;28;20041;-64
2021/05/06 14:51:08;;;;;;;3.78;2.30;;;;;;;8.28;65.73;98178.25;5016413;28;20038;-64
2021/05/06 14:53:33;;;;;;;5.22;2.58;;;;;;;8.21;64.42;98173.09;5015841;28;20025;-65
2021/05/06 14:55:59;;;;;;;3.63;2.05;;;;;;;7.84;61.66;98176.47;5016476;28;20443;-65
2021/05/06 14:58:28;;;;;;;3.35;2.10;;;;;;;8.10;67.47;98174.88;5015622;28;20464;-65